sensor_id;sensor_type;location;lat;lon;timestamp;temperature;humidity
3921;DHT22;1975;49.356;6.816;2023-10-08T00:01:41;14.60;99.90
3921;DHT22;1975;49.356;6.816;2023-10-08T00:04:08;14.60;99.90
3921;DHT22;1975;49.356;6.816;2023-10-08T00:06:34;14.60;99.90
3921;DHT22;1975;49.356;6.816;2023-10-08T00:09:00;14.60;99.90
3921;DHT22;1975;49.356;6.816;2023-10-08T00:11:26;14.60;99.90
3921;DHT22;1975;49.356;6.816;2023-10-08T00:13:54;14.60;99.90
3921;DHT22;1975;49.356;6.816;2023-10-08T00:16:21;14.60;99.90
3921;DHT22;1975;49.356;6.816;2023-10-08T00:18:47;14.60;99.90
3921;DHT22;1975;49.356;6.816;2023-10-08T00:21:19;14.60;99.90
3921;DHT22;1975;49.356;6.816;2023-10-08T00:23:45;14.60;99.90
3921;DHT22;1975;49.356;6.816;2023-10-08T00:26:18;14.50;99.90
3921;DHT22;1975;49.356;6.816;2023-10-08T00:28:48;14.50;99.90
3921;DHT22;1975;49.356;6.816;2023-10-08T00:31:17;14.50;99.90
3921;DHT22;1975;49.356;6.816;2023-10-08T00:33:43;14.50;99.90
3921;DHT22;1975;49.356;6.816;2023-10-08T00:36:12;14.50;99.90
3921;DHT22;1975;49.356;6.816;2023-10-08T00:38:45;14.50;99.90
3921;DHT22;1975;49.356;6.816;2023-10-08T00:41:13;14.50;99.90
3921;DHT22;1975;49.356;6.816;2023-10-08T00:43:42;14.50;99.90
3921;DHT22;1975;49.356;6.816;2023-10-08T00:46:10;14.50;99.90
3921;DHT22;1975;49.356;6.816;2023-10-08T00:48:54;14.50;99.90
3921;DHT22;1975;49.356;6.816;2023-10-08T00:51:26;14.50;99.90
3921;DHT22;1975;49.356;6.816;2023-10-08T00:54:02;14.50;99.90
3921;DHT22;1975;49.356;6.816;2023-10-08T00:56:32;14.40;99.90
3921;DHT22;1975;49.356;6.816;2023-10-08T00:59:22;14.40;99.90
3921;DHT22;1975;49.356;6.816;2023-10-08T01:01:49;14.40;99.90
3921;DHT22;1975;49.356;6.816;2023-10-08T01:04:24;14.40;99.90
3921;DHT22;1975;49.356;6.816;2023-10-08T01:06:55;14.40;99.90
3921;DHT22;1975;49.356;6.816;2023-10-08T01:09:25;14.40;99.90
3921;DHT22;1975;49.356;6.816;2023-10-08T01:12:12;14.40;99.90
3921;DHT22;1975;49.356;6.816;2023-10-08T01:14:43;14.40;99.90
3921;DHT22;1975;49.356;6.816;2023-10-08T01:17:11;14.40;99.90
3921;DHT22;1975;49.356;6.816;2023-10-08T01:19:47;14.40;99.90
3921;DHT22;1975;49.356;6.816;2023-10-08T01:22:20;14.40;99.90
3921;DHT22;1975;49.356;6.816;2023-10-08T01:24:47;14.40;99.90
3921;DHT22;1975;49.356;6.816;2023-10-08T01:27:14;14.40;99.90
3921;DHT22;1975;49.356;6.816;2023-10-08T01:29:46;14.30;99.90
3921;DHT22;1975;49.356;6.816;2023-10-08T01:32:11;14.30;99.90
3921;DHT22;1975;49.356;6.816;2023-10-08T01:34:41;14.30;99.90
3921;DHT22;1975;49.356;6.816;2023-10-08T01:37:12;14.40;99.90
3921;DHT22;1975;49.356;6.816;2023-10-08T01:39:38;14.30;99.90
3921;DHT22;1975;49.356;6.816;2023-10-08T01:42:08;14.30;99.90
3921;DHT22;1975;49.356;6.816;2023-10-08T01:44:40;14.30;99.90
3921;DHT22;1975;49.356;6.816;2023-10-08T01:47:06;14.30;99.90
3921;DHT22;1975;49.356;6.816;2023-10-08T01:49:31;14.30;99.90
3921;DHT22;1975;49.356;6.816;2023-10-08T01:51:59;14.30;99.90
3921;DHT22;1975;49.356;6.816;2023-10-08T01:54:29;14.30;99.90
3921;DHT22;1975;49.356;6.816;2023-10-08T01:56:56;14.30;99.90
3921;DHT22;1975;49.356;6.816;2023-10-08T01:59:22;14.30;99.90
3921;DHT22;1975;49.356;6.816;2023-10-08T02:01:49;14.30;99.90
3921;DHT22;1975;49.356;6.816;2023-10-08T02:04:15;14.30;99.90
3921;DHT22;1975;49.356;6.816;2023-10-08T02:06:42;14.20;99.90
3921;DHT22;1975;49.356;6.816;2023-10-08T02:09:08;14.20;99.90
3921;DHT22;1975;49.356;6.816;2023-10-08T02:11:46;14.20;99.90
3921;DHT22;1975;49.356;6.816;2023-10-08T02:14:15;14.20;99.90
3921;DHT22;1975;49.356;6.816;2023-10-08T02:16:42;14.20;99.90
3921;DHT22;1975;49.356;6.816;2023-10-08T02:19:07;14.20;99.90
3921;DHT22;1975;49.356;6.816;2023-10-08T02:21:36;14.20;99.90
3921;DHT22;1975;49.356;6.816;2023-10-08T02:24:03;14.20;99.90
3921;DHT22;1975;49.356;6.816;2023-10-08T02:26:29;14.20;99.90
3921;DHT22;1975;49.356;6.816;2023-10-08T02:28:54;14.20;99.90
3921;DHT22;1975;49.356;6.816;2023-10-08T02:31:20;14.20;99.90
3921;DHT22;1975;49.356;6.816;2023-10-08T02:33:45;14.20;99.90
3921;DHT22;1975;49.356;6.816;2023-10-08T02:36:10;14.20;99.90
3921;DHT22;1975;49.356;6.816;2023-10-08T02:38:38;14.20;99.90
3921;DHT22;1975;49.356;6.816;2023-10-08T02:41:04;14.10;99.90
3921;DHT22;1975;49.356;6.816;2023-10-08T02:43:32;14.10;99.90
3921;DHT22;1975;49.356;6.816;2023-10-08T02:46:00;14.10;99.90
3921;DHT22;1975;49.356;6.816;2023-10-08T02:48:25;14.10;99.90
3921;DHT22;1975;49.356;6.816;2023-10-08T02:50:50;14.10;99.90
3921;DHT22;1975;49.356;6.816;2023-10-08T02:53:18;14.10;99.90
3921;DHT22;1975;49.356;6.816;2023-10-08T02:55:46;14.10;99.90
3921;DHT22;1975;49.356;6.816;2023-10-08T02:58:12;14.10;99.90
3921;DHT22;1975;49.356;6.816;2023-10-08T03:00:43;14.00;99.90
3921;DHT22;1975;49.356;6.816;2023-10-08T03:03:09;14.10;99.90
3921;DHT22;1975;49.356;6.816;2023-10-08T03:05:50;14.10;99.90
3921;DHT22;1975;49.356;6.816;2023-10-08T03:08:16;14.00;99.90
3921;DHT22;1975;49.356;6.816;2023-10-08T03:10:46;14.10;99.90
3921;DHT22;1975;49.356;6.816;2023-10-08T03:13:16;14.00;99.90
3921;DHT22;1975;49.356;6.816;2023-10-08T03:15:42;14.00;99.90
3921;DHT22;1975;49.356;6.816;2023-10-08T03:18:31;14.00;99.90
3921;DHT22;1975;49.356;6.816;2023-10-08T03:21:08;14.00;99.90
3921;DHT22;1975;49.356;6.816;2023-10-08T03:23:46;14.00;99.90
3921;DHT22;1975;49.356;6.816;2023-10-08T03:26:13;14.00;99.90
3921;DHT22;1975;49.356;6.816;2023-10-08T03:28:53;14.00;99.90
3921;DHT22;1975;49.356;6.816;2023-10-08T03:31:23;14.00;99.90
3921;DHT22;1975;49.356;6.816;2023-10-08T03:34:09;13.90;99.90
3921;DHT22;1975;49.356;6.816;2023-10-08T03:36:38;14.00;99.90
3921;DHT22;1975;49.356;6.816;2023-10-08T03:39:13;13.90;99.90
3921;DHT22;1975;49.356;6.816;2023-10-08T03:41:39;13.90;99.90
3921;DHT22;1975;49.356;6.816;2023-10-08T03:44:05;13.90;99.90
3921;DHT22;1975;49.356;6.816;2023-10-08T03:46:32;13.90;99.90
3921;DHT22;1975;49.356;6.816;2023-10-08T03:49:07;13.90;99.90
3921;DHT22;1975;49.356;6.816;2023-10-08T03:51:41;13.90;99.90
3921;DHT22;1975;49.356;6.816;2023-10-08T03:54:07;13.90;99.90
3921;DHT22;1975;49.356;6.816;2023-10-08T03:56:41;13.90;99.90
3921;DHT22;1975;49.356;6.816;2023-10-08T03:59:13;13.80;99.90
3921;DHT22;1975;49.356;6.816;2023-10-08T04:01:40;13.80;99.90
3921;DHT22;1975;49.356;6.816;2023-10-08T04:04:06;13.80;99.90
3921;DHT22;1975;49.356;6.816;2023-10-08T04:06:37;13.80;99.90
3921;DHT22;1975;49.356;6.816;2023-10-08T04:09:04;13.80;99.90
3921;DHT22;1975;49.356;6.816;2023-10-08T04:11:41;13.80;99.90
3921;DHT22;1975;49.356;6.816;2023-10-08T04:14:17;13.80;99.90
3921;DHT22;1975;49.356;6.816;2023-10-08T04:16:42;13.80;99.90
3921;DHT22;1975;49.356;6.816;2023-10-08T04:19:08;13.80;99.90
3921;DHT22;1975;49.356;6.816;2023-10-08T04:21:34;13.80;99.90
3921;DHT22;1975;49.356;6.816;2023-10-08T04:24:00;13.80;99.90
3921;DHT22;1975;49.356;6.816;2023-10-08T04:26:29;13.80;99.90
3921;DHT22;1975;49.356;6.816;2023-10-08T04:28:55;13.80;99.90
3921;DHT22;1975;49.356;6.816;2023-10-08T04:31:26;13.80;99.90
3921;DHT22;1975;49.356;6.816;2023-10-08T04:34:02;13.80;99.90
3921;DHT22;1975;49.356;6.816;2023-10-08T04:36:34;13.70;99.90
3921;DHT22;1975;49.356;6.816;2023-10-08T04:39:00;13.70;99.90
3921;DHT22;1975;49.356;6.816;2023-10-08T04:41:29;13.70;99.90
3921;DHT22;1975;49.356;6.816;2023-10-08T04:43:55;13.70;99.90
3921;DHT22;1975;49.356;6.816;2023-10-08T04:46:21;13.70;99.90
3921;DHT22;1975;49.356;6.816;2023-10-08T04:49:05;13.70;99.90
3921;DHT22;1975;49.356;6.816;2023-10-08T04:51:33;13.70;99.90
3921;DHT22;1975;49.356;6.816;2023-10-08T04:54:10;13.70;99.90
3921;DHT22;1975;49.356;6.816;2023-10-08T04:56:35;13.70;99.90
3921;DHT22;1975;49.356;6.816;2023-10-08T04:59:04;13.70;99.90
3921;DHT22;1975;49.356;6.816;2023-10-08T05:01:30;13.70;99.90
3921;DHT22;1975;49.356;6.816;2023-10-08T05:04:28;13.70;99.90
3921;DHT22;1975;49.356;6.816;2023-10-08T05:06:58;13.70;99.90
3921;DHT22;1975;49.356;6.816;2023-10-08T05:09:42;13.60;99.90
3921;DHT22;1975;49.356;6.816;2023-10-08T05:12:17;13.60;99.90
3921;DHT22;1975;49.356;6.816;2023-10-08T05:14:58;13.60;99.90
3921;DHT22;1975;49.356;6.816;2023-10-08T05:17:39;13.60;99.90
3921;DHT22;1975;49.356;6.816;2023-10-08T05:22:58;13.60;99.90
3921;DHT22;1975;49.356;6.816;2023-10-08T05:25:42;13.60;99.90
3921;DHT22;1975;49.356;6.816;2023-10-08T05:28:23;13.60;99.90
3921;DHT22;1975;49.356;6.816;2023-10-08T05:30:52;13.60;99.90
3921;DHT22;1975;49.356;6.816;2023-10-08T05:33:37;13.60;99.90
3921;DHT22;1975;49.356;6.816;2023-10-08T05:36:21;13.60;99.90
3921;DHT22;1975;49.356;6.816;2023-10-08T05:39:06;13.60;99.90
3921;DHT22;1975;49.356;6.816;2023-10-08T05:41:50;13.60;99.90
3921;DHT22;1975;49.356;6.816;2023-10-08T05:44:34;13.60;99.90
3921;DHT22;1975;49.356;6.816;2023-10-08T05:47:11;13.60;99.90
3921;DHT22;1975;49.356;6.816;2023-10-08T06:00:43;13.60;99.90
3921;DHT22;1975;49.356;6.816;2023-10-08T06:03:15;13.50;99.90
3921;DHT22;1975;49.356;6.816;2023-10-08T06:06:03;13.50;99.90
3921;DHT22;1975;49.356;6.816;2023-10-08T06:08:35;13.50;99.90
3921;DHT22;1975;49.356;6.816;2023-10-08T06:11:16;13.50;99.90
3921;DHT22;1975;49.356;6.816;2023-10-08T06:14:00;13.50;99.90
3921;DHT22;1975;49.356;6.816;2023-10-08T06:16:26;13.50;99.90
3921;DHT22;1975;49.356;6.816;2023-10-08T06:19:07;13.50;99.90
3921;DHT22;1975;49.356;6.816;2023-10-08T06:21:35;13.40;99.90
3921;DHT22;1975;49.356;6.816;2023-10-08T06:24:02;13.40;99.90
3921;DHT22;1975;49.356;6.816;2023-10-08T06:26:29;13.40;99.90
3921;DHT22;1975;49.356;6.816;2023-10-08T06:28:59;13.40;99.90
3921;DHT22;1975;49.356;6.816;2023-10-08T06:31:24;13.50;99.90
3921;DHT22;1975;49.356;6.816;2023-10-08T06:33:52;13.40;99.90
3921;DHT22;1975;49.356;6.816;2023-10-08T06:36:18;13.50;99.90
3921;DHT22;1975;49.356;6.816;2023-10-08T06:38:48;13.40;99.90
3921;DHT22;1975;49.356;6.816;2023-10-08T06:41:14;13.40;99.90
3921;DHT22;1975;49.356;6.816;2023-10-08T06:43:40;13.40;99.90
3921;DHT22;1975;49.356;6.816;2023-10-08T06:46:08;13.50;99.90
3921;DHT22;1975;49.356;6.816;2023-10-08T06:48:37;13.40;99.90
3921;DHT22;1975;49.356;6.816;2023-10-08T06:51:03;13.40;99.90
3921;DHT22;1975;49.356;6.816;2023-10-08T06:53:44;13.40;99.90
3921;DHT22;1975;49.356;6.816;2023-10-08T06:56:13;13.40;99.90
3921;DHT22;1975;49.356;6.816;2023-10-08T06:58:38;13.40;99.90
3921;DHT22;1975;49.356;6.816;2023-10-08T07:01:04;13.40;99.90
3921;DHT22;1975;49.356;6.816;2023-10-08T07:03:30;13.40;99.90
3921;DHT22;1975;49.356;6.816;2023-10-08T07:05:57;13.40;99.90
3921;DHT22;1975;49.356;6.816;2023-10-08T07:08:27;13.50;99.90
3921;DHT22;1975;49.356;6.816;2023-10-08T07:10:54;13.50;99.90
3921;DHT22;1975;49.356;6.816;2023-10-08T07:13:23;13.50;99.90
3921;DHT22;1975;49.356;6.816;2023-10-08T07:15:50;13.50;99.90
3921;DHT22;1975;49.356;6.816;2023-10-08T07:18:15;13.50;99.90
3921;DHT22;1975;49.356;6.816;2023-10-08T07:20:47;13.50;99.90
3921;DHT22;1975;49.356;6.816;2023-10-08T07:23:22;13.50;99.90
3921;DHT22;1975;49.356;6.816;2023-10-08T07:25:54;13.50;99.90
3921;DHT22;1975;49.356;6.816;2023-10-08T07:28:30;13.50;99.90
3921;DHT22;1975;49.356;6.816;2023-10-08T07:30:56;13.50;99.90
3921;DHT22;1975;49.356;6.816;2023-10-08T07:33:23;13.50;99.90
3921;DHT22;1975;49.356;6.816;2023-10-08T07:35:50;13.50;99.90
3921;DHT22;1975;49.356;6.816;2023-10-08T07:38:43;13.50;99.90
3921;DHT22;1975;49.356;6.816;2023-10-08T07:41:12;13.60;99.90
3921;DHT22;1975;49.356;6.816;2023-10-08T07:43:41;13.60;99.90
3921;DHT22;1975;49.356;6.816;2023-10-08T07:46:09;13.60;99.90
3921;DHT22;1975;49.356;6.816;2023-10-08T07:48:36;13.60;99.90
